Time;durP1;ratioP1;P1;durP2;ratioP2;P2;SDS_P1;SDS_P2;PMS_P1;PMS_P2;Temp;Humidity;BMP_temperature;BMP_pressure;BME280_temperature;BME280_humidity;BME280_pressure;Samples;Min_cycle;Max_cycle;Signal;HPM_P1;HPM_P2
2022/12/25 00:00:31;;;;;;;8.25;1.92;;;11.10;99.90;;;;;;5110972;28;20111;-69
2022/12/25 00:02:57;;;;;;;4.05;1.02;;;11.10;99.90;;;;;;5110459;28;20028;-69
2022/12/25 00:05:23;;;;;;;7.68;1.20;;;11.10;99.90;;;;;;5107096;28;20112;-69
2022/12/25 00:07:49;;;;;;;8.30;1.75;;;11.10;99.90;;;;;;5093457;28;20032;-69
2022/12/25 00:10:15;;;;;;;5.82;1.23;;;11.10;99.90;;;;;;5102144;28;20582;-69
2022/12/25 00:12:41;;;;;;;6.03;0.98;;;11.10;99.90;;;;;;5104865;28;20036;-69
2022/12/25 00:15:07;;;;;;;6.85;1.33;;;11.10;99.90;;;;;;5107639;28;20039;-70
2022/12/25 00:17:33;;;;;;;7.90;1.45;;;11.10;99.90;;;;;;5106042;28;20078;-68
2022/12/25 00:19:58;;;;;;;9.73;1.40;;;11.10;99.90;;;;;;5112250;28;20027;-69
2022/12/25 00:22:24;;;;;;;4.78;1.13;;;11.20;99.90;;;;;;5105917;28;20020;-68
2022/12/25 00:24:50;;;;;;;7.68;1.60;;;11.20;99.90;;;;;;5110157;28;20051;-68
2022/12/25 00:27:15;;;;;;;5.30;1.35;;;11.20;99.90;;;;;;5092454;28;20051;-69
2022/12/25 00:29:41;;;;;;;8.90;1.10;;;11.20;99.90;;;;;;5109662;28;20499;-68
2022/12/25 00:32:07;;;;;;;3.72;1.10;;;11.10;99.90;;;;;;5110189;28;20475;-69
2022/12/25 00:34:33;;;;;;;6.85;1.45;;;11.10;99.90;;;;;;5103525;28;20099;-69
2022/12/25 00:36:59;;;;;;;5.40;1.42;;;11.20;99.90;;;;;;5103940;28;20200;-69
2022/12/25 00:39:25;;;;;;;9.07;1.30;;;11.10;99.90;;;;;;5106675;28;20451;-68
2022/12/25 00:44:35;;;;;;;7.97;1.50;;;11.20;99.90;;;;;;5100269;28;20131;-69
2022/12/25 00:47:02;;;;;;;10.13;1.75;;;11.20;99.90;;;;;;5100197;28;20115;-70
2022/12/25 00:49:28;;;;;;;6.97;1.80;;;11.20;99.90;;;;;;5108602;28;20038;-69
2022/12/25 00:51:53;;;;;;;8.25;1.98;;;11.20;99.90;;;;;;5111153;28;20032;-69
2022/12/25 00:54:19;;;;;;;6.85;1.42;;;11.20;99.90;;;;;;5107583;28;20058;-69
2022/12/25 00:56:45;;;;;;;7.43;1.20;;;11.20;99.90;;;;;;5105829;28;20097;-68
2022/12/25 00:59:12;;;;;;;7.68;1.08;;;11.20;99.90;;;;;;5109488;28;20028;-69
2022/12/25 01:01:38;;;;;;;8.43;1.55;;;11.20;99.90;;;;;;5109271;28;20104;-70
2022/12/25 01:04:05;;;;;;;7.85;1.58;;;11.20;99.90;;;;;;5110393;28;20032;-69
2022/12/25 01:06:30;;;;;;;6.40;0.93;;;11.20;99.90;;;;;;5102174;28;20513;-68
2022/12/25 01:11:41;;;;;;;6.88;1.92;;;11.20;99.90;;;;;;5107592;28;20080;-70
2022/12/25 01:14:07;;;;;;;9.60;2.00;;;11.20;99.90;;;;;;5107885;28;20114;-69
2022/12/25 01:16:33;;;;;;;7.68;1.30;;;11.20;99.90;;;;;;5098942;28;20111;-69
2022/12/25 01:18:59;;;;;;;7.20;1.92;;;11.20;99.90;;;;;;5096335;28;20161;-71
2022/12/25 01:21:25;;;;;;;9.05;1.17;;;11.10;99.90;;;;;;5091010;28;20032;-68
2022/12/25 01:23:51;;;;;;;6.13;1.70;;;11.10;99.90;;;;;;5105893;28;20475;-68
2022/12/25 01:26:19;;;;;;;10.18;1.27;;;11.10;99.90;;;;;;5108283;28;20047;-68
2022/12/25 01:28:45;;;;;;;4.45;1.10;;;11.10;99.90;;;;;;5106935;28;20038;-70
2022/12/25 01:31:15;;;;;;;10.95;1.38;;;11.10;99.90;;;;;;5110878;28;20536;-69
2022/12/25 01:33:42;;;;;;;8.57;1.80;;;11.10;99.90;;;;;;5102220;28;20062;-70
2022/12/25 01:36:11;;;;;;;10.27;1.48;;;11.10;99.90;;;;;;5101253;28;20020;-69
2022/12/25 01:38:37;;;;;;;9.38;1.40;;;11.10;99.90;;;;;;5106898;28;20479;-69
2022/12/25 01:41:03;;;;;;;5.20;1.23;;;11.10;99.90;;;;;;5106201;28;20020;-68
2022/12/25 01:43:30;;;;;;;8.25;2.05;;;11.00;99.90;;;;;;5104662;28;20031;-69
2022/12/25 01:45:56;;;;;;;6.97;0.93;;;11.00;99.90;;;;;;5105454;28;20028;-68
2022/12/25 01:48:32;;;;;;;7.15;1.23;;;11.00;99.90;;;;;;5108922;27;20027;-68
2022/12/25 01:51:05;;;;;;;6.45;1.33;;;11.00;99.90;;;;;;5117553;27;20024;-68
2022/12/25 01:53:31;;;;;;;10.48;1.60;;;11.00;99.90;;;;;;5101978;27;20073;-69
2022/12/25 01:56:04;;;;;;;11.80;2.08;;;10.90;99.90;;;;;;5106328;28;20031;-68
2022/12/25 01:58:30;;;;;;;4.43;1.10;;;10.90;99.90;;;;;;5109295;28;20034;-70
2022/12/25 02:00:56;;;;;;;7.93;1.30;;;10.80;99.90;;;;;;5106607;28;20030;-70
2022/12/25 02:03:23;;;;;;;10.52;1.00;;;10.80;99.90;;;;;;5104639;27;20119;-68
2022/12/25 02:05:50;;;;;;;9.25;1.23;;;10.70;99.90;;;;;;5111488;27;20102;-68
2022/12/25 02:08:18;;;;;;;7.55;1.40;;;10.70;99.90;;;;;;5115847;27;20051;-69
2022/12/25 02:10:44;;;;;;;7.68;1.50;;;10.60;99.90;;;;;;5113525;27;20028;-67
2022/12/25 02:13:12;;;;;;;7.18;1.27;;;10.60;99.90;;;;;;5115690;28;20068;-69
2022/12/25 02:16:01;;;;;;;9.27;1.30;;;10.60;99.90;;;;;;5091980;28;20030;-69
2022/12/25 02:18:42;;;;;;;8.88;1.05;;;10.60;99.90;;;;;;5104464;28;20499;-68
2022/12/25 02:21:14;;;;;;;12.18;1.52;;;10.60;99.90;;;;;;5117155;28;20055;-68
2022/12/25 02:24:20;;;;;;;10.65;1.83;;;10.50;99.90;;;;;;5105783;28;20015;-69
2022/12/25 02:27:14;;;;;;;9.10;1.50;;;10.50;99.90;;;;;;5107103;28;20394;-69
2022/12/25 02:29:47;;;;;;;6.03;1.23;;;10.30;99.90;;;;;;5098837;28;20023;-69
2022/12/25 02:32:15;;;;;;;3.78;0.88;;;10.40;99.90;;;;;;5111363;28;20049;-72
2022/12/25 02:34:50;;;;;;;6.85;1.20;;;10.40;99.90;;;;;;5106842;28;20114;-68
2022/12/25 02:37:44;;;;;;;7.75;1.02;;;10.40;99.90;;;;;;5108316;28;20467;-68
2022/12/25 02:40:22;;;;;;;8.38;2.00;;;10.50;99.90;;;;;;5105394;27;20035;-69
2022/12/25 03:08:38;;;;;;;7.78;0.77;;;11.10;99.90;;;;;;5045671;28;20504;-68
2022/12/25 03:13:56;;;;;;;8.95;0.98;;;11.10;99.90;;;;;;5059234;28;20704;-69
2022/12/25 03:16:49;;;;;;;5.55;0.80;;;11.10;99.90;;;;;;5047709;28;20481;-69
2022/12/25 03:27:38;;;;;;;6.10;1.00;;;11.10;99.90;;;;;;5043705;28;20060;-69
2022/12/25 03:33:04;;;;;;;10.30;1.20;;;11.20;99.90;;;;;;5057840;28;20036;-68
2022/12/25 03:36:06;;;;;;;4.65;0.70;;;11.20;99.90;;;;;;5104182;28;20487;-70
2022/12/25 04:37:46;;;;;;;4.18;0.88;;;11.20;99.90;;;;;;5104812;28;20039;-70
2022/12/25 04:40:12;;;;;;;10.95;1.20;;;11.20;99.90;;;;;;5111017;28;20024;-69
2022/12/25 04:42:38;;;;;;;7.88;1.00;;;11.20;99.90;;;;;;5108425;28;20019;-69
2022/12/25 04:45:03;;;;;;;6.60;0.98;;;11.20;99.90;;;;;;5109954;28;20032;-69
2022/12/25 04:47:29;;;;;;;5.68;1.05;;;11.20;99.90;;;;;;5091724;28;20028;-69
2022/12/25 04:49:55;;;;;;;3.80;1.00;;;11.10;99.90;;;;;;5112135;28;20118;-68
2022/12/25 04:52:21;;;;;;;5.47;0.95;;;11.10;99.90;;;;;;5109359;28;20436;-69
2022/12/25 04:54:46;;;;;;;3.03;1.02;;;11.10;99.90;;;;;;5109531;28;20028;-69
2022/12/25 04:57:12;;;;;;;7.78;1.13;;;11.10;99.90;;;;;;5103685;28;20024;-69
2022/12/25 04:59:38;;;;;;;8.23;0.98;;;11.10;99.90;;;;;;5107951;27;20110;-69
2022/12/25 05:02:03;;;;;;;8.23;0.98;;;11.10;99.90;;;;;;5110264;28;20027;-68
2022/12/25 05:04:29;;;;;;;3.58;0.90;;;11.10;99.90;;;;;;5108173;28;20369;-68
2022/12/25 05:06:54;;;;;;;5.88;0.90;;;11.10;99.90;;;;;;5111080;28;20104;-68
2022/12/25 05:09:20;;;;;;;7.93;1.10;;;11.10;99.90;;;;;;5104704;28;20110;-68
2022/12/25 05:11:46;;;;;;;7.55;0.98;;;11.10;99.90;;;;;;5099664;28;20043;-69
2022/12/25 05:14:11;;;;;;;9.00;1.60;;;11.10;99.90;;;;;;5106487;28;20050;-68
2022/12/25 05:16:37;;;;;;;9.85;1.42;;;11.10;99.90;;;;;;5109037;28;20423;-69
2022/12/25 05:19:03;;;;;;;4.30;0.90;;;11.20;99.90;;;;;;5093118;28;20028;-69
2022/12/25 05:21:28;;;;;;;9.45;1.73;;;11.20;99.90;;;;;;5103757;28;20486;-68
2022/12/25 05:23:54;;;;;;;7.50;1.88;;;11.10;99.90;;;;;;5100909;28;20519;-68
2022/12/25 05:26:23;;;;;;;4.55;0.90;;;11.20;99.90;;;;;;5090158;27;20015;-69
2022/12/25 05:28:49;;;;;;;9.48;1.42;;;11.10;99.90;;;;;;5109254;28;20023;-68
2022/12/25 05:31:15;;;;;;;6.53;1.67;;;11.10;99.90;;;;;;5109987;28;20028;-68
2022/12/25 05:33:41;;;;;;;13.98;2.13;;;11.10;99.90;;;;;;5096220;28;20032;-68
2022/12/25 05:36:09;;;;;;;5.90;1.67;;;11.10;99.90;;;;;;5099366;28;20081;-69
2022/12/25 05:38:35;;;;;;;7.03;1.20;;;11.10;99.90;;;;;;5090997;28;20384;-69
2022/12/25 05:41:01;;;;;;;12.20;1.20;;;11.10;99.90;;;;;;5110179;28;20099;-69
2022/12/25 05:43:28;;;;;;;2.58;1.10;;;11.10;99.90;;;;;;5089234;28;20484;-69
2022/12/25 05:45:53;;;;;;;7.95;0.98;;;11.20;99.90;;;;;;5080194;27;20412;-69
2022/12/25 05:48:19;;;;;;;5.35;0.90;;;11.20;99.90;;;;;;5113428;27;20023;-69
2022/12/25 05:50:45;;;;;;;11.25;1.38;;;11.20;99.90;;;;;;5117813;27;20467;-68
2022/12/25 05:53:12;;;;;;;4.47;1.08;;;11.20;99.90;;;;;;5106834;28;20028;-68
2022/12/25 05:55:40;;;;;;;9.45;1.85;;;11.10;99.90;;;;;;5110799;27;20031;-67
2022/12/25 05:58:07;;;;;;;9.38;1.30;;;11.20;99.90;;;;;;5117741;27;20035;-69
2022/12/25 06:00:33;;;;;;;8.45;1.60;;;11.10;99.90;;;;;;5110592;27;20121;-68
2022/12/25 06:02:58;;;;;;;5.40;1.40;;;11.10;99.90;;;;;;5111015;27;20074;-69
2022/12/25 06:05:25;;;;;;;9.70;2.03;;;11.20;99.90;;;;;;5110073;27;20447;-67
2022/12/25 06:07:50;;;;;;;7.20;2.17;;;11.10;99.90;;;;;;5116316;27;20020;-68
2022/12/25 06:10:16;;;;;;;5.88;1.33;;;11.10;99.90;;;;;;5108381;28;20032;-67
2022/12/25 06:12:41;;;;;;;16.55;1.90;;;11.10;99.90;;;;;;5107820;28;20031;-68
2022/12/25 06:15:08;;;;;;;7.15;1.27;;;11.10;99.90;;;;;;5095183;28;20486;-68
2022/12/25 06:17:33;;;;;;;11.77;1.27;;;11.10;99.90;;;;;;5107352;28;20058;-68
2022/12/25 06:19:59;;;;;;;8.43;1.45;;;11.00;99.90;;;;;;5109926;28;20403;-69
2022/12/25 06:22:29;;;;;;;7.35;1.70;;;11.10;99.90;;;;;;5108728;28;20028;-68
2022/12/25 06:24:55;;;;;;;7.30;1.67;;;11.10;99.90;;;;;;5110316;28;20036;-69
2022/12/25 06:27:20;;;;;;;8.15;1.30;;;11.10;99.90;;;;;;5112845;28;20024;-68
2022/12/25 06:29:46;;;;;;;5.57;1.35;;;11.10;99.90;;;;;;5112366;28;20107;-68
2022/12/25 06:32:12;;;;;;;6.88;1.27;;;11.10;99.90;;;;;;5109598;28;20063;-69
2022/12/25 06:34:37;;;;;;;11.43;1.30;;;11.00;99.90;;;;;;5102240;28;20027;-69
2022/12/25 06:37:03;;;;;;;10.38;0.95;;;11.10;99.90;;;;;;5097727;28;20062;-69
2022/12/25 06:39:29;;;;;;;8.32;2.05;;;11.00;99.90;;;;;;5107930;28;20076;-69
2022/12/25 06:41:54;;;;;;;5.93;1.00;;;11.00;99.90;;;;;;5097083;28;20039;-68
2022/12/25 06:44:20;;;;;;;8.30;1.20;;;11.00;99.90;;;;;;5107030;28;20031;-68
2022/12/25 06:46:45;;;;;;;9.15;1.25;;;10.90;99.90;;;;;;5103801;28;20039;-69
2022/12/25 06:49:11;;;;;;;10.60;1.52;;;10.90;99.90;;;;;;5086741;28;20440;-68
2022/12/25 06:51:37;;;;;;;8.18;1.35;;;11.00;99.90;;;;;;5106118;28;20023;-69
2022/12/25 06:54:03;;;;;;;5.03;1.50;;;11.00;99.90;;;;;;5103380;28;20042;-68
2022/12/25 06:56:29;;;;;;;9.90;1.85;;;11.00;99.90;;;;;;5099523;28;20020;-70
2022/12/25 06:59:01;;;;;;;2.90;0.93;;;11.00;99.90;;;;;;5109320;28;20020;-68
2022/12/25 07:01:34;;;;;;;9.38;1.63;;;11.00;99.90;;;;;;5105292;28;20115;-69
2022/12/25 07:04:14;;;;;;;9.68;1.45;;;11.00;99.90;;;;;;5104570;28;20044;-68
2022/12/25 07:06:39;;;;;;;9.55;1.50;;;11.10;99.90;;;;;;5096574;28;20052;-69
2022/12/25 07:09:05;;;;;;;9.70;1.50;;;11.00;99.90;;;;;;5100407;28;20028;-69
2022/12/25 07:11:30;;;;;;;4.63;1.05;;;11.10;99.90;;;;;;5096604;28;20024;-70
2022/12/25 07:13:56;;;;;;;8.43;1.35;;;11.10;99.90;;;;;;5109087;28;20039;-69
2022/12/25 07:16:22;;;;;;;4.43;0.95;;;11.00;99.90;;;;;;5108320;28;20115;-69
2022/12/25 07:18:47;;;;;;;8.77;2.25;;;11.00;99.90;;;;;;5108032;28;20474;-69
2022/12/25 07:21:15;;;;;;;6.60;0.95;;;11.00;99.90;;;;;;5103409;28;20076;-69
2022/12/25 07:23:42;;;;;;;7.05;1.40;;;11.10;99.90;;;;;;5106732;28;20104;-69
2022/12/25 07:26:10;;;;;;;6.10;0.80;;;11.10;99.90;;;;;;5105100;28;20047;-66
2022/12/25 07:28:35;;;;;;;7.82;1.88;;;11.10;99.90;;;;;;5093266;28;20027;-69
2022/12/25 07:31:06;;;;;;;6.95;1.75;;;11.00;99.90;;;;;;5110940;28;20149;-69
2022/12/25 07:33:33;;;;;;;6.13;1.00;;;11.10;99.90;;;;;;5108557;28;20123;-69
2022/12/25 07:35:59;;;;;;;8.32;1.08;;;11.10;99.90;;;;;;5106754;28;20038;-68
2022/12/25 07:38:25;;;;;;;5.38;0.85;;;11.10;99.90;;;;;;5111473;28;20042;-68
2022/12/25 07:40:52;;;;;;;7.70;1.10;;;11.10;99.90;;;;;;5107136;28;20015;-69
2022/12/25 07:43:18;;;;;;;5.60;1.63;;;11.10;99.90;;;;;;5112622;28;20027;-69
2022/12/25 07:45:44;;;;;;;7.40;1.15;;;11.00;99.90;;;;;;5103808;28;20032;-67
2022/12/25 07:48:10;;;;;;;8.23;1.20;;;11.00;99.90;;;;;;5112858;28;20513;-70
2022/12/25 07:50:35;;;;;;;4.80;1.20;;;10.90;99.90;;;;;;5103912;28;20032;-69
2022/12/25 07:53:01;;;;;;;8.30;1.38;;;10.90;99.90;;;;;;5110750;28;20047;-69
2022/12/25 07:55:27;;;;;;;7.93;1.50;;;10.80;99.90;;;;;;5102646;28;20081;-69
2022/12/25 07:57:52;;;;;;;4.20;0.93;;;10.80;99.90;;;;;;5111064;28;20196;-68
2022/12/25 08:00:18;;;;;;;4.75;1.60;;;10.80;99.90;;;;;;5110228;28;20073;-68
2022/12/25 08:02:44;;;;;;;3.78;1.10;;;10.80;99.90;;;;;;5103820;28;20073;-69
2022/12/25 08:05:09;;;;;;;3.13;1.00;;;10.80;99.90;;;;;;5106252;28;20086;-68
2022/12/25 08:07:35;;;;;;;5.20;1.73;;;10.80;99.90;;;;;;5108349;28;20492;-69
2022/12/25 08:10:04;;;;;;;5.20;0.85;;;10.90;99.90;;;;;;5106684;28;20038;-69
2022/12/25 08:12:30;;;;;;;7.50;0.93;;;10.80;99.90;;;;;;5084917;28;20027;-69
2022/12/25 08:14:55;;;;;;;5.80;1.13;;;10.80;99.90;;;;;;5107887;28;20032;-69
2022/12/25 08:17:21;;;;;;;8.88;1.23;;;10.80;99.90;;;;;;5107439;28;20028;-69
2022/12/25 08:19:47;;;;;;;5.07;1.23;;;10.80;99.90;;;;;;5101628;28;20463;-69
2022/12/25 08:22:13;;;;;;;6.22;1.20;;;10.80;99.90;;;;;;5107170;28;20172;-69
2022/12/25 08:24:38;;;;;;;8.30;1.23;;;10.90;99.90;;;;;;5101609;28;20095;-68
2022/12/25 08:27:04;;;;;;;7.68;1.35;;;10.90;99.90;;;;;;5114250;27;20533;-69
2022/12/25 08:29:30;;;;;;;5.57;1.40;;;10.90;99.90;;;;;;5078476;28;20036;-69
2022/12/25 08:31:55;;;;;;;5.75;1.70;;;10.90;99.90;;;;;;5104155;28;20070;-69
2022/12/25 08:34:22;;;;;;;6.95;2.45;;;10.90;99.90;;;;;;5103759;28;20032;-68
2022/12/25 08:36:47;;;;;;;9.50;3.00;;;10.90;99.90;;;;;;5107173;28;20024;-68
2022/12/25 08:39:13;;;;;;;6.95;1.60;;;10.90;99.90;;;;;;5099071;28;20138;-68
2022/12/25 08:41:39;;;;;;;6.55;2.03;;;11.00;99.90;;;;;;5108140;27;20027;-69
2022/12/25 08:44:05;;;;;;;4.93;1.08;;;11.00;99.90;;;;;;5116585;27;20039;-69
2022/12/25 08:46:31;;;;;;;7.15;1.60;;;11.00;99.90;;;;;;5102101;27;20020;-69
2022/12/25 08:48:57;;;;;;;7.60;1.45;;;11.10;99.90;;;;;;5116913;27;20061;-68
2022/12/25 08:51:24;;;;;;;8.77;1.73;;;11.10;99.90;;;;;;5113932;27;20057;-68
2022/12/25 08:53:52;;;;;;;9.32;1.80;;;11.00;99.90;;;;;;5105956;28;20035;-69
2022/12/25 08:56:18;;;;;;;4.82;1.58;;;11.00;99.90;;;;;;5116453;27;20483;-68
2022/12/25 08:58:44;;;;;;;8.93;1.77;;;11.10;99.90;;;;;;5112539;27;20066;-69
2022/12/25 09:01:11;;;;;;;8.73;1.65;;;11.10;99.90;;;;;;5112565;27;20034;-69
2022/12/25 09:03:37;;;;;;;4.45;1.60;;;11.10;99.90;;;;;;5102416;27;20023;-68
2022/12/25 09:06:05;;;;;;;10.13;2.20;;;11.00;99.90;;;;;;5111482;27;20085;-68
2022/12/25 09:08:31;;;;;;;6.45;1.60;;;11.00;99.90;;;;;;5112359;27;20080;-69
2022/12/25 09:11:01;;;;;;;10.65;1.83;;;11.00;99.90;;;;;;5112488;27;20500;-69
2022/12/25 09:13:27;;;;;;;10.85;1.65;;;11.10;99.90;;;;;;5102355;28;20035;-69
2022/12/25 09:15:53;;;;;;;7.32;1.65;;;11.10;99.90;;;;;;5115634;27;20030;-71
2022/12/25 09:18:18;;;;;;;6.35;1.80;;;11.20;99.90;;;;;;5107689;27;20157;-69
2022/12/25 09:20:44;;;;;;;6.07;2.38;;;11.20;99.90;;;;;;5099094;28;20028;-68
2022/12/25 09:23:09;;;;;;;7.18;2.20;;;11.20;99.90;;;;;;5101582;28;20375;-69
2022/12/25 09:25:35;;;;;;;8.27;1.98;;;11.30;99.90;;;;;;5104953;28;20065;-67
2022/12/25 09:28:01;;;;;;;6.65;2.97;;;11.30;99.90;;;;;;5110477;27;20024;-70
2022/12/25 09:30:26;;;;;;;11.15;2.10;;;11.40;99.90;;;;;;5104633;28;20515;-70
2022/12/25 09:32:52;;;;;;;11.48;2.53;;;11.50;99.90;;;;;;5111075;27;20032;-69
2022/12/25 09:35:18;;;;;;;6.32;2.38;;;11.60;99.90;;;;;;5114707;27;20028;-71
2022/12/25 09:37:44;;;;;;;10.63;2.58;;;11.60;99.90;;;;;;5106088;27;20595;-70
2022/12/25 09:40:15;;;;;;;10.32;2.13;;;11.70;99.90;;;;;;5107752;28;20051;-69
2022/12/25 09:42:41;;;;;;;10.05;1.80;;;11.80;99.90;;;;;;5110909;27;20110;-69
2022/12/25 09:45:35;;;;;;;9.68;2.30;;;11.90;99.90;;;;;;5122892;27;20122;-69
2022/12/25 09:48:01;;;;;;;6.53;1.50;;;11.90;99.90;;;;;;5104054;27;20103;-68
2022/12/25 09:50:41;;;;;;;6.20;1.38;;;11.90;99.90;;;;;;5120547;27;20026;-68
2022/12/25 09:53:15;;;;;;;4.68;2.15;;;11.90;99.90;;;;;;5108977;28;20043;-69
2022/12/25 09:55:58;;;;;;;5.15;1.33;;;12.00;99.90;;;;;;5098855;28;20016;-68
2022/12/25 09:58:25;;;;;;;8.27;1.70;;;11.90;99.90;;;;;;5094706;28;20111;-68
2022/12/25 10:01:02;;;;;;;5.97;2.40;;;12.00;99.90;;;;;;5108892;28;20421;-69
2022/12/25 10:03:51;;;;;;;4.68;1.45;;;12.00;99.90;;;;;;5107903;28;20024;-68
2022/12/25 10:06:45;;;;;;;6.80;1.30;;;12.00;99.90;;;;;;5096943;28;20039;-70
2022/12/25 10:09:52;;;;;;;3.42;1.00;;;11.90;99.90;;;;;;5106481;27;20030;-69
2022/12/25 10:12:39;;;;;;;6.88;2.10;;;12.00;99.90;;;;;;5069749;27;20429;-69
2022/12/25 10:15:34;;;;;;;6.18;1.40;;;12.00;99.90;;;;;;5114938;27;20024;-69
2022/12/25 10:18:19;;;;;;;7.10;1.92;;;12.10;99.90;;;;;;5103918;28;20395;-69
2022/12/25 10:20:51;;;;;;;6.72;1.00;;;12.10;99.90;;;;;;5100346;28;20027;-70
2022/12/25 10:23:48;;;;;;;5.13;0.80;;;12.10;99.90;;;;;;5102203;28;20031;-69
2022/12/25 10:26:18;;;;;;;5.82;1.13;;;12.20;99.90;;;;;;5009214;28;20124;-69
2022/12/25 10:28:58;;;;;;;4.68;0.68;;;12.20;99.90;;;;;;5006777;28;20109;-69
2022/12/25 10:31:29;;;;;;;4.18;0.82;;;12.20;99.90;;;;;;5004996;28;20070;-67
2022/12/25 10:33:55;;;;;;;3.00;0.65;;;12.10;99.90;;;;;;5009768;28;20087;-69
2022/12/25 10:36:26;;;;;;;5.82;1.20;;;12.10;99.90;;;;;;5006572;28;20124;-69
2022/12/25 10:38:52;;;;;;;4.50;0.80;;;12.20;99.90;;;;;;5011849;28;20390;-69
2022/12/25 10:41:36;;;;;;;5.18;0.93;;;12.20;99.90;;;;;;5005769;28;20037;-70
2022/12/25 10:44:19;;;;;;;2.20;0.88;;;12.20;99.90;;;;;;5012134;28;20037;-69
2022/12/25 10:46:48;;;;;;;;;;;12.20;99.90;;;;;;5004582;28;20213;-70
2022/12/25 10:49:16;;;;;;;6.55;0.88;;;12.20;99.90;;;;;;5009337;28;19910;-69
2022/12/25 10:51:41;;;;;;;7.32;1.48;;;12.40;99.90;;;;;;5019241;28;20076;-69
2022/12/25 10:54:31;;;;;;;7.70;0.82;;;12.50;99.90;;;;;;5013002;28;20042;-70
2022/12/25 10:57:07;;;;;;;3.25;0.52;;;12.70;99.90;;;;;;5014584;28;20038;-69
2022/12/25 10:59:44;;;;;;;6.78;1.27;;;12.90;99.90;;;;;;5011684;28;20067;-69
2022/12/25 11:02:26;;;;;;;2.08;0.68;;;13.00;99.90;;;;;;5045196;28;20088;-69
2022/12/25 11:05:02;;;;;;;6.70;0.57;;;13.10;99.90;;;;;;5113350;27;20478;-68
2022/12/25 11:07:28;;;;;;;2.85;0.57;;;13.20;99.90;;;;;;5105192;28;20535;-69
2022/12/25 11:10:02;;;;;;;3.67;0.57;;;13.10;99.90;;;;;;5106281;28;20118;-69
2022/12/25 11:12:35;;;;;;;4.72;0.55;;;13.20;99.90;;;;;;5118359;27;20031;-68
2022/12/25 11:15:25;;;;;;;6.50;1.05;;;13.00;99.90;;;;;;5115910;27;20116;-69
2022/12/25 11:17:51;;;;;;;4.15;0.68;;;12.80;99.90;;;;;;5104763;28;20395;-69
2022/12/25 11:20:19;;;;;;;2.42;0.40;;;12.60;99.90;;;;;;5110761;28;20123;-70
2022/12/25 11:22:46;;;;;;;4.65;1.02;;;12.50;99.90;;;;;;5110747;27;20066;-69
2022/12/25 11:25:14;;;;;;;2.40;0.47;;;12.50;99.90;;;;;;5111995;27;20093;-70
2022/12/25 11:27:41;;;;;;;3.30;0.50;;;12.40;99.90;;;;;;5106308;27;20023;-69
2022/12/25 11:30:14;;;;;;;3.83;0.63;;;12.40;99.90;;;;;;5108271;27;20036;-69
2022/12/25 11:32:54;;;;;;;2.45;0.90;;;12.50;99.90;;;;;;5103600;28;20077;-70
2022/12/25 11:35:22;;;;;;;1.05;0.43;;;12.60;99.90;;;;;;5112345;28;20063;-69
2022/12/25 11:37:50;;;;;;;3.78;1.08;;;12.60;99.90;;;;;;5110038;28;20491;-76
2022/12/25 11:40:30;;;;;;;3.42;0.52;;;12.50;99.90;;;;;;5112489;28;20435;-69
2022/12/25 11:43:18;;;;;;;3.67;0.50;;;12.50;99.90;;;;;;5108247;28;20089;-69
2022/12/25 11:46:08;;;;;;;2.38;0.88;;;12.60;99.90;;;;;;5093283;28;20032;-69
2022/12/25 11:48:40;;;;;;;4.72;0.52;;;12.70;99.90;;;;;;5101993;28;20020;-68
2022/12/25 11:51:08;;;;;;;7.57;0.80;;;13.00;99.90;;;;;;5106966;28;20034;-70
2022/12/25 11:53:43;;;;;;;6.15;1.60;;;13.50;99.90;;;;;;5099580;28;20035;-70
2022/12/25 11:56:13;;;;;;;1.42;0.20;;;14.00;99.90;;;;;;5117002;27;20102;-69
2022/12/25 11:59:13;;;;;;;3.13;0.50;;;13.90;99.90;;;;;;5107485;28;20364;-68
2022/12/25 12:01:52;;;;;;;4.53;0.82;;;13.90;99.90;;;;;;5086020;28;20036;-68
2022/12/25 12:04:45;;;;;;;5.25;0.70;;;13.90;99.90;;;;;;5108869;28;20031;-68
2022/12/25 12:07:25;;;;;;;5.20;0.80;;;14.10;99.90;;;;;;5099907;28;20067;-68
2022/12/25 12:10:00;;;;;;;3.55;0.80;;;14.90;99.90;;;;;;5110493;28;20033;-68
2022/12/25 12:12:44;;;;;;;3.05;0.70;;;15.30;99.90;;;;;;5105002;28;20518;-66
2022/12/25 12:15:33;;;;;;;4.65;1.27;;;15.50;99.90;;;;;;5107480;27;20047;-67
2022/12/25 12:18:17;;;;;;;6.00;0.82;;;15.30;99.90;;;;;;5096096;28;20040;-67
2022/12/25 12:20:43;;;;;;;5.82;0.60;;;14.90;99.90;;;;;;5109550;28;20111;-73
2022/12/25 12:23:15;;;;;;;2.58;0.90;;;14.60;99.90;;;;;;5109361;28;20168;-72
2022/12/25 12:25:43;;;;;;;3.22;0.52;;;14.90;99.90;;;;;;5101778;28;20020;-71
2022/12/25 12:28:19;;;;;;;3.22;0.63;;;15.10;99.90;;;;;;5111937;28;20016;-71
2022/12/25 12:31:05;;;;;;;4.43;0.82;;;15.20;99.90;;;;;;5103591;28;20279;-71
2022/12/25 12:33:40;;;;;;;1.38;0.40;;;14.90;99.90;;;;;;5103719;28;20035;-71
2022/12/25 12:36:11;;;;;;;5.53;0.63;;;14.70;99.90;;;;;;5107321;28;20114;-71
2022/12/25 12:38:39;;;;;;;3.33;0.60;;;14.60;99.90;;;;;;5086539;28;20023;-71
2022/12/25 12:41:07;;;;;;;3.45;0.47;;;14.60;99.90;;;;;;5106513;28;20498;-69
2022/12/25 12:43:32;;;;;;;3.75;0.30;;;14.60;99.90;;;;;;5111462;28;20479;-69
2022/12/25 12:46:19;;;;;;;2.53;0.82;;;14.80;99.90;;;;;;5106898;28;20170;-68
2022/12/25 12:48:48;;;;;;;2.08;0.60;;;15.10;99.90;;;;;;5100871;28;20096;-68
2022/12/25 12:51:30;;;;;;;3.45;0.80;;;15.30;99.90;;;;;;5111273;28;20039;-68
2022/12/25 12:54:19;;;;;;;2.03;1.05;;;15.20;99.90;;;;;;5100343;28;20040;-68
2022/12/25 12:57:24;;;;;;;1.50;0.68;;;14.90;99.90;;;;;;5096058;28;20020;-69
2022/12/25 12:59:50;;;;;;;5.57;0.80;;;14.30;99.90;;;;;;5086343;28;20364;-69
2022/12/25 13:02:53;;;;;;;8.90;3.72;;;14.10;99.90;;;;;;5106728;28;20129;-71
2022/12/25 13:05:51;;;;;;;4.15;1.23;;;13.90;99.90;;;;;;5107340;27;20409;-71
2022/12/25 13:08:28;;;;;;;2.00;0.90;;;13.70;99.90;;;;;;5105230;28;20054;-72
2022/12/25 13:11:13;;;;;;;4.20;1.25;;;13.60;99.90;;;;;;5090590;28;20403;-72
2022/12/25 13:13:41;;;;;;;2.40;1.60;;;13.50;99.90;;;;;;5093717;28;20488;-68
2022/12/25 13:16:28;;;;;;;4.85;0.70;;;13.50;99.90;;;;;;5106633;27;20106;-67
2022/12/25 13:18:55;;;;;;;8.02;3.60;;;13.30;99.90;;;;;;5100970;28;20028;-69
2022/12/25 13:21:29;;;;;;;4.07;1.17;;;13.10;99.90;;;;;;5108353;28;20024;-73
2022/12/25 13:24:00;;;;;;;2.33;0.63;;;13.00;99.90;;;;;;5102465;28;20027;-68
2022/12/25 13:26:26;;;;;;;2.97;0.60;;;12.80;99.90;;;;;;5100139;27;20023;-70
2022/12/25 13:28:54;;;;;;;5.13;0.50;;;12.70;99.90;;;;;;5109496;28;20124;-69
2022/12/25 13:31:23;;;;;;;0.82;0.43;;;12.60;99.90;;;;;;5098022;28;20050;-69
2022/12/25 13:34:29;;;;;;;0.90;0.68;;;12.50;99.90;;;;;;5103498;28;20024;-70
2022/12/25 13:36:55;;;;;;;2.80;0.50;;;12.50;99.90;;;;;;5106866;28;20507;-69
2022/12/25 13:39:23;;;;;;;3.60;0.47;;;12.50;99.90;;;;;;5110854;28;20026;-68
2022/12/25 13:42:04;;;;;;;0.98;0.52;;;12.50;99.90;;;;;;5097156;28;20490;-68
2022/12/25 13:44:59;;;;;;;1.38;0.40;;;12.50;99.90;;;;;;5107319;28;20028;-67
2022/12/25 13:47:30;;;;;;;2.60;0.93;;;12.50;99.90;;;;;;5104407;28;20043;-68
2022/12/25 13:49:58;;;;;;;3.47;0.88;;;12.50;99.90;;;;;;5110607;28;20046;-66
2022/12/25 13:52:34;;;;;;;1.08;0.50;;;12.50;99.90;;;;;;5106411;28;20128;-71
2022/12/25 13:55:09;;;;;;;2.30;0.50;;;12.50;99.90;;;;;;5103510;28;20035;-67
2022/12/25 13:58:02;;;;;;;1.80;0.60;;;12.50;99.90;;;;;;5099115;28;20049;-72
2022/12/25 14:00:31;;;;;;;2.45;1.15;;;12.60;99.90;;;;;;5101713;28;20039;-72
2022/12/25 14:02:57;;;;;;;3.58;0.77;;;12.50;99.90;;;;;;5106153;28;20031;-70
2022/12/25 14:05:29;;;;;;;2.58;0.50;;;12.50;99.90;;;;;;5110186;28;20097;-70
2022/12/25 14:07:57;;;;;;;3.25;1.60;;;12.50;99.90;;;;;;5106705;28;20134;-69
2022/12/25 14:10:27;;;;;;;2.78;0.60;;;12.50;99.90;;;;;;5110590;28;20031;-68
2022/12/25 14:12:57;;;;;;;4.38;1.02;;;12.40;99.90;;;;;;5106745;28;20521;-67
2022/12/25 14:15:23;;;;;;;3.75;0.70;;;12.40;99.90;;;;;;5097876;28;20024;-70
2022/12/25 14:17:50;;;;;;;3.30;1.30;;;12.40;99.90;;;;;;5103963;28;20054;-74
2022/12/25 14:20:56;;;;;;;2.75;0.88;;;12.40;99.90;;;;;;5105889;28;20040;-69
2022/12/25 14:23:21;;;;;;;1.40;0.35;;;12.30;99.90;;;;;;5104259;28;20062;-69
2022/12/25 14:25:47;;;;;;;1.10;0.70;;;12.30;99.90;;;;;;5104601;28;20059;-72
2022/12/25 14:28:25;;;;;;;2.88;1.20;;;12.30;99.90;;;;;;5103554;28;20031;-68
2022/12/25 14:30:52;;;;;;;0.85;0.40;;;12.30;99.90;;;;;;5095883;28;20028;-69
2022/12/25 14:33:23;;;;;;;2.38;0.80;;;12.20;99.90;;;;;;5106006;28;20032;-71
2022/12/25 14:35:50;;;;;;;1.52;0.70;;;12.20;99.90;;;;;;5112377;28;20153;-70
2022/12/25 14:38:25;;;;;;;2.70;0.50;;;12.30;99.90;;;;;;5109997;28;20039;-72
2022/12/25 14:41:02;;;;;;;3.30;0.55;;;12.20;99.90;;;;;;5101625;28;20472;-67
2022/12/25 14:43:29;;;;;;;1.95;0.40;;;12.10;99.90;;;;;;5109552;28;20423;-67
2022/12/25 14:46:01;;;;;;;2.35;0.80;;;12.00;99.90;;;;;;5122223;27;20443;-71
2022/12/25 14:48:30;;;;;;;;;;;12.00;99.90;;;;;;5107898;28;20555;-69